Terminal Aerodrome Forecast
Issued by NWS Tulsa, OK

Home | Current Version | Previous Version | Text Only | Print | Product List | Glossary On
Versions: 1 2 3 4 5 6 7 8 9 10 11 12 13 14
000
FTUS44 KTSA 281100
TAFFSM
TAF
KFSM 281135Z 2812/2912 06007KT P6SM SKC
     FM281700 14010KT P6SM SKC
     FM290300 08005KT P6SM SKC
     FM290900 16008KT P6SM BKN250=

USA.gov is the U.S. government's official web portal to all federal, state and local government web resources and services.